sensor_id;sensor_type;location;lat;lon;timestamp;P1;durP1;ratioP1;P2;durP2;ratioP2
20181;SDS011;10250;50.756;6.172;2023-02-22T00:00:10;15.47;;;4.40;;
20181;SDS011;10250;50.756;6.172;2023-02-22T00:02:18;14.40;;;4.10;;
20181;SDS011;10250;50.756;6.172;2023-02-22T00:04:26;16.30;;;4.23;;
20181;SDS011;10250;50.756;6.172;2023-02-22T00:06:27;13.10;;;4.00;;
20181;SDS011;10250;50.756;6.172;2023-02-22T00:08:31;14.40;;;4.10;;
20181;SDS011;10250;50.756;6.172;2023-02-22T00:10:33;14.77;;;3.80;;
20181;SDS011;10250;50.756;6.172;2023-02-22T00:12:37;14.70;;;3.60;;
20181;SDS011;10250;50.756;6.172;2023-02-22T00:14:38;15.53;;;3.83;;
20181;SDS011;10250;50.756;6.172;2023-02-22T00:16:39;16.50;;;4.97;;
20181;SDS011;10250;50.756;6.172;2023-02-22T00:18:40;13.77;;;4.13;;
20181;SDS011;10250;50.756;6.172;2023-02-22T00:20:41;15.67;;;3.97;;
20181;SDS011;10250;50.756;6.172;2023-02-22T00:22:43;13.67;;;3.70;;
20181;SDS011;10250;50.756;6.172;2023-02-22T00:24:48;15.23;;;4.20;;
20181;SDS011;10250;50.756;6.172;2023-02-22T00:26:50;15.67;;;4.30;;
20181;SDS011;10250;50.756;6.172;2023-02-22T00:28:52;12.87;;;3.73;;
20181;SDS011;10250;50.756;6.172;2023-02-22T00:30:53;14.23;;;4.17;;
20181;SDS011;10250;50.756;6.172;2023-02-22T00:32:55;18.40;;;4.60;;
20181;SDS011;10250;50.756;6.172;2023-02-22T00:34:56;13.47;;;3.73;;
20181;SDS011;10250;50.756;6.172;2023-02-22T00:36:57;16.67;;;4.30;;
20181;SDS011;10250;50.756;6.172;2023-02-22T00:39:01;17.10;;;5.00;;
20181;SDS011;10250;50.756;6.172;2023-02-22T00:41:02;13.50;;;3.90;;
20181;SDS011;10250;50.756;6.172;2023-02-22T00:43:04;14.47;;;3.97;;
20181;SDS011;10250;50.756;6.172;2023-02-22T00:45:05;13.37;;;3.63;;
20181;SDS011;10250;50.756;6.172;2023-02-22T00:47:06;17.53;;;4.73;;
20181;SDS011;10250;50.756;6.172;2023-02-22T00:49:07;16.23;;;4.17;;
20181;SDS011;10250;50.756;6.172;2023-02-22T00:51:08;12.40;;;3.33;;
20181;SDS011;10250;50.756;6.172;2023-02-22T00:53:09;12.73;;;3.80;;
20181;SDS011;10250;50.756;6.172;2023-02-22T00:55:15;11.73;;;2.97;;
20181;SDS011;10250;50.756;6.172;2023-02-22T00:57:17;13.93;;;3.40;;
20181;SDS011;10250;50.756;6.172;2023-02-22T00:59:18;14.67;;;3.47;;
20181;SDS011;10250;50.756;6.172;2023-02-22T01:01:19;15.57;;;3.57;;
20181;SDS011;10250;50.756;6.172;2023-02-22T01:03:20;12.40;;;3.40;;
20181;SDS011;10250;50.756;6.172;2023-02-22T01:05:22;12.80;;;4.20;;
20181;SDS011;10250;50.756;6.172;2023-02-22T01:07:23;13.53;;;3.83;;
20181;SDS011;10250;50.756;6.172;2023-02-22T01:09:25;12.57;;;3.17;;
20181;SDS011;10250;50.756;6.172;2023-02-22T01:11:26;16.40;;;3.87;;
20181;SDS011;10250;50.756;6.172;2023-02-22T01:13:26;14.00;;;3.70;;
20181;SDS011;10250;50.756;6.172;2023-02-22T01:15:28;12.27;;;3.70;;
20181;SDS011;10250;50.756;6.172;2023-02-22T01:17:30;15.93;;;4.60;;
20181;SDS011;10250;50.756;6.172;2023-02-22T01:19:31;12.97;;;3.03;;
20181;SDS011;10250;50.756;6.172;2023-02-22T01:21:32;11.37;;;2.83;;
20181;SDS011;10250;50.756;6.172;2023-02-22T01:23:33;11.37;;;2.97;;
20181;SDS011;10250;50.756;6.172;2023-02-22T01:25:34;13.80;;;3.17;;
20181;SDS011;10250;50.756;6.172;2023-02-22T01:27:36;11.70;;;3.13;;
20181;SDS011;10250;50.756;6.172;2023-02-22T01:29:37;9.90;;;2.57;;
20181;SDS011;10250;50.756;6.172;2023-02-22T01:31:38;15.83;;;3.87;;
20181;SDS011;10250;50.756;6.172;2023-02-22T01:33:39;12.33;;;3.37;;
20181;SDS011;10250;50.756;6.172;2023-02-22T01:35:41;15.17;;;3.93;;
20181;SDS011;10250;50.756;6.172;2023-02-22T01:37:42;10.93;;;2.63;;
20181;SDS011;10250;50.756;6.172;2023-02-22T01:39:43;16.90;;;3.57;;
20181;SDS011;10250;50.756;6.172;2023-02-22T01:41:44;11.47;;;2.97;;
20181;SDS011;10250;50.756;6.172;2023-02-22T01:43:45;12.47;;;3.30;;
20181;SDS011;10250;50.756;6.172;2023-02-22T01:45:48;12.27;;;2.67;;
20181;SDS011;10250;50.756;6.172;2023-02-22T01:47:49;11.10;;;2.80;;
20181;SDS011;10250;50.756;6.172;2023-02-22T01:49:50;10.30;;;3.27;;
20181;SDS011;10250;50.756;6.172;2023-02-22T01:51:52;13.73;;;3.60;;
20181;SDS011;10250;50.756;6.172;2023-02-22T01:53:59;11.17;;;3.23;;
20181;SDS011;10250;50.756;6.172;2023-02-22T01:56:01;13.40;;;3.13;;
20181;SDS011;10250;50.756;6.172;2023-02-22T01:58:03;11.67;;;3.03;;
20181;SDS011;10250;50.756;6.172;2023-02-22T02:00:06;8.57;;;2.47;;
20181;SDS011;10250;50.756;6.172;2023-02-22T02:02:11;12.50;;;3.23;;
20181;SDS011;10250;50.756;6.172;2023-02-22T02:04:15;11.90;;;3.27;;
20181;SDS011;10250;50.756;6.172;2023-02-22T02:06:17;11.20;;;2.67;;
20181;SDS011;10250;50.756;6.172;2023-02-22T02:08:22;10.20;;;2.27;;
20181;SDS011;10250;50.756;6.172;2023-02-22T02:10:24;11.57;;;2.30;;
20181;SDS011;10250;50.756;6.172;2023-02-22T02:12:29;11.47;;;2.87;;
20181;SDS011;10250;50.756;6.172;2023-02-22T02:14:31;11.03;;;2.80;;
20181;SDS011;10250;50.756;6.172;2023-02-22T02:16:42;14.30;;;2.90;;
20181;SDS011;10250;50.756;6.172;2023-02-22T02:18:44;9.73;;;2.43;;
20181;SDS011;10250;50.756;6.172;2023-02-22T02:27:45;6.33;;;1.97;;
20181;SDS011;10250;50.756;6.172;2023-02-22T02:32:21;6.67;;;1.50;;
20181;SDS011;10250;50.756;6.172;2023-02-22T02:34:23;8.90;;;1.90;;
20181;SDS011;10250;50.756;6.172;2023-02-22T02:41:33;7.57;;;1.40;;
20181;SDS011;10250;50.756;6.172;2023-02-22T02:43:54;6.67;;;1.70;;
20181;SDS011;10250;50.756;6.172;2023-02-22T02:48:11;7.23;;;1.70;;
20181;SDS011;10250;50.756;6.172;2023-02-22T02:50:20;6.07;;;1.60;;
20181;SDS011;10250;50.756;6.172;2023-02-22T02:52:23;5.87;;;1.60;;
20181;SDS011;10250;50.756;6.172;2023-02-22T02:54:25;6.40;;;1.67;;
20181;SDS011;10250;50.756;6.172;2023-02-22T02:56:26;7.17;;;1.67;;
20181;SDS011;10250;50.756;6.172;2023-02-22T02:58:28;6.77;;;1.80;;
20181;SDS011;10250;50.756;6.172;2023-02-22T03:00:30;8.77;;;1.70;;
20181;SDS011;10250;50.756;6.172;2023-02-22T03:02:48;7.40;;;1.90;;
20181;SDS011;10250;50.756;6.172;2023-02-22T03:04:57;7.97;;;1.80;;
20181;SDS011;10250;50.756;6.172;2023-02-22T03:07:09;9.17;;;1.73;;
20181;SDS011;10250;50.756;6.172;2023-02-22T03:11:37;6.20;;;1.63;;
20181;SDS011;10250;50.756;6.172;2023-02-22T03:16:05;9.40;;;2.30;;
20181;SDS011;10250;50.756;6.172;2023-02-22T03:18:14;8.87;;;2.23;;
20181;SDS011;10250;50.756;6.172;2023-02-22T03:20:29;12.83;;;2.80;;
20181;SDS011;10250;50.756;6.172;2023-02-22T03:22:36;8.27;;;2.40;;
20181;SDS011;10250;50.756;6.172;2023-02-22T03:24:47;11.30;;;2.83;;
20181;SDS011;10250;50.756;6.172;2023-02-22T03:28:58;11.00;;;2.53;;
20181;SDS011;10250;50.756;6.172;2023-02-22T03:31:05;11.20;;;2.97;;
20181;SDS011;10250;50.756;6.172;2023-02-22T03:33:10;8.50;;;2.50;;
20181;SDS011;10250;50.756;6.172;2023-02-22T03:35:17;10.73;;;2.37;;
20181;SDS011;10250;50.756;6.172;2023-02-22T03:37:21;10.50;;;2.70;;
20181;SDS011;10250;50.756;6.172;2023-02-22T03:39:24;12.80;;;2.73;;
20181;SDS011;10250;50.756;6.172;2023-02-22T03:41:30;8.40;;;2.50;;
20181;SDS011;10250;50.756;6.172;2023-02-22T03:43:33;8.27;;;2.30;;
20181;SDS011;10250;50.756;6.172;2023-02-22T03:45:36;9.13;;;2.50;;
20181;SDS011;10250;50.756;6.172;2023-02-22T03:47:44;11.73;;;2.70;;
20181;SDS011;10250;50.756;6.172;2023-02-22T03:49:48;9.90;;;2.27;;
20181;SDS011;10250;50.756;6.172;2023-02-22T03:51:50;12.20;;;3.00;;
20181;SDS011;10250;50.756;6.172;2023-02-22T03:53:51;10.50;;;2.57;;
20181;SDS011;10250;50.756;6.172;2023-02-22T03:55:52;9.53;;;2.60;;
20181;SDS011;10250;50.756;6.172;2023-02-22T03:57:55;10.20;;;2.10;;
20181;SDS011;10250;50.756;6.172;2023-02-22T03:59:57;11.50;;;2.33;;
20181;SDS011;10250;50.756;6.172;2023-02-22T04:01:58;11.77;;;2.73;;
20181;SDS011;10250;50.756;6.172;2023-02-22T04:03:59;10.00;;;2.73;;
20181;SDS011;10250;50.756;6.172;2023-02-22T04:06:00;10.73;;;2.70;;
20181;SDS011;10250;50.756;6.172;2023-02-22T04:08:02;10.23;;;2.50;;
20181;SDS011;10250;50.756;6.172;2023-02-22T04:10:05;10.03;;;2.70;;
20181;SDS011;10250;50.756;6.172;2023-02-22T04:12:07;9.33;;;2.37;;
20181;SDS011;10250;50.756;6.172;2023-02-22T04:14:08;9.70;;;2.30;;
20181;SDS011;10250;50.756;6.172;2023-02-22T04:16:09;11.50;;;2.50;;
20181;SDS011;10250;50.756;6.172;2023-02-22T04:18:10;10.37;;;2.57;;
20181;SDS011;10250;50.756;6.172;2023-02-22T04:20:11;8.20;;;2.67;;
20181;SDS011;10250;50.756;6.172;2023-02-22T04:22:12;8.93;;;2.37;;
20181;SDS011;10250;50.756;6.172;2023-02-22T04:24:13;8.00;;;1.73;;
20181;SDS011;10250;50.756;6.172;2023-02-22T04:26:14;6.60;;;1.90;;
20181;SDS011;10250;50.756;6.172;2023-02-22T04:28:15;8.37;;;1.90;;
20181;SDS011;10250;50.756;6.172;2023-02-22T04:30:17;7.67;;;1.90;;
20181;SDS011;10250;50.756;6.172;2023-02-22T04:32:18;10.37;;;2.33;;
20181;SDS011;10250;50.756;6.172;2023-02-22T04:34:19;6.27;;;1.80;;
20181;SDS011;10250;50.756;6.172;2023-02-22T04:36:20;8.80;;;2.17;;
20181;SDS011;10250;50.756;6.172;2023-02-22T04:38:22;11.30;;;2.40;;
20181;SDS011;10250;50.756;6.172;2023-02-22T04:40:25;7.93;;;2.00;;
20181;SDS011;10250;50.756;6.172;2023-02-22T04:42:26;7.90;;;1.90;;
20181;SDS011;10250;50.756;6.172;2023-02-22T04:44:27;7.20;;;1.97;;
20181;SDS011;10250;50.756;6.172;2023-02-22T04:46:28;8.20;;;2.37;;
20181;SDS011;10250;50.756;6.172;2023-02-22T04:48:30;9.30;;;2.47;;
20181;SDS011;10250;50.756;6.172;2023-02-22T04:50:31;7.80;;;1.80;;
20181;SDS011;10250;50.756;6.172;2023-02-22T04:52:32;8.33;;;1.70;;
20181;SDS011;10250;50.756;6.172;2023-02-22T04:54:33;9.17;;;2.00;;
20181;SDS011;10250;50.756;6.172;2023-02-22T04:56:34;6.07;;;1.80;;
20181;SDS011;10250;50.756;6.172;2023-02-22T04:58:35;7.67;;;1.93;;
20181;SDS011;10250;50.756;6.172;2023-02-22T05:00:36;7.23;;;1.57;;
20181;SDS011;10250;50.756;6.172;2023-02-22T05:02:37;5.23;;;1.57;;
20181;SDS011;10250;50.756;6.172;2023-02-22T05:04:41;9.17;;;2.00;;
20181;SDS011;10250;50.756;6.172;2023-02-22T05:06:42;4.97;;;1.57;;
20181;SDS011;10250;50.756;6.172;2023-02-22T05:08:43;6.87;;;2.00;;
20181;SDS011;10250;50.756;6.172;2023-02-22T05:10:44;7.23;;;2.00;;
20181;SDS011;10250;50.756;6.172;2023-02-22T05:12:45;8.93;;;2.13;;
20181;SDS011;10250;50.756;6.172;2023-02-22T05:14:46;9.57;;;1.97;;
20181;SDS011;10250;50.756;6.172;2023-02-22T05:16:47;8.87;;;2.07;;
20181;SDS011;10250;50.756;6.172;2023-02-22T05:18:49;7.00;;;1.90;;
20181;SDS011;10250;50.756;6.172;2023-02-22T05:20:50;7.17;;;2.00;;
20181;SDS011;10250;50.756;6.172;2023-02-22T05:22:51;8.73;;;2.20;;
20181;SDS011;10250;50.756;6.172;2023-02-22T05:24:51;9.70;;;2.20;;
20181;SDS011;10250;50.756;6.172;2023-02-22T05:26:52;9.63;;;2.37;;
20181;SDS011;10250;50.756;6.172;2023-02-22T05:28:53;11.00;;;2.20;;
20181;SDS011;10250;50.756;6.172;2023-02-22T05:30:54;6.07;;;1.53;;
20181;SDS011;10250;50.756;6.172;2023-02-22T05:32:55;6.83;;;1.80;;
20181;SDS011;10250;50.756;6.172;2023-02-22T05:34:58;8.40;;;2.03;;
20181;SDS011;10250;50.756;6.172;2023-02-22T05:36:59;6.90;;;1.93;;
20181;SDS011;10250;50.756;6.172;2023-02-22T05:39:00;5.47;;;1.93;;
20181;SDS011;10250;50.756;6.172;2023-02-22T05:41:01;8.67;;;2.10;;
20181;SDS011;10250;50.756;6.172;2023-02-22T05:43:03;7.13;;;2.00;;
20181;SDS011;10250;50.756;6.172;2023-02-22T05:45:04;10.03;;;2.27;;
20181;SDS011;10250;50.756;6.172;2023-02-22T05:47:05;7.83;;;2.10;;
20181;SDS011;10250;50.756;6.172;2023-02-22T05:49:06;8.07;;;2.00;;
20181;SDS011;10250;50.756;6.172;2023-02-22T05:51:07;11.80;;;2.47;;
20181;SDS011;10250;50.756;6.172;2023-02-22T05:53:09;4.97;;;1.53;;
20181;SDS011;10250;50.756;6.172;2023-02-22T05:55:12;9.93;;;2.60;;
20181;SDS011;10250;50.756;6.172;2023-02-22T05:57:13;7.60;;;2.17;;
20181;SDS011;10250;50.756;6.172;2023-02-22T05:59:14;8.10;;;2.00;;
20181;SDS011;10250;50.756;6.172;2023-02-22T06:01:15;9.23;;;2.70;;
20181;SDS011;10250;50.756;6.172;2023-02-22T06:03:16;8.63;;;2.03;;
20181;SDS011;10250;50.756;6.172;2023-02-22T06:05:17;8.43;;;2.33;;
20181;SDS011;10250;50.756;6.172;2023-02-22T06:07:18;9.57;;;2.30;;
20181;SDS011;10250;50.756;6.172;2023-02-22T06:09:19;7.00;;;1.87;;
20181;SDS011;10250;50.756;6.172;2023-02-22T06:11:20;9.50;;;2.10;;
20181;SDS011;10250;50.756;6.172;2023-02-22T06:13:21;9.67;;;2.33;;
20181;SDS011;10250;50.756;6.172;2023-02-22T06:15:22;9.73;;;2.50;;
20181;SDS011;10250;50.756;6.172;2023-02-22T06:17:23;7.97;;;2.07;;
20181;SDS011;10250;50.756;6.172;2023-02-22T06:19:24;6.40;;;1.87;;
20181;SDS011;10250;50.756;6.172;2023-02-22T06:21:25;7.60;;;2.20;;
20181;SDS011;10250;50.756;6.172;2023-02-22T06:23:26;9.23;;;2.03;;
20181;SDS011;10250;50.756;6.172;2023-02-22T06:25:28;9.43;;;2.43;;
20181;SDS011;10250;50.756;6.172;2023-02-22T06:27:33;10.07;;;2.30;;
20181;SDS011;10250;50.756;6.172;2023-02-22T06:29:34;7.00;;;1.93;;
20181;SDS011;10250;50.756;6.172;2023-02-22T06:31:35;10.90;;;2.33;;
20181;SDS011;10250;50.756;6.172;2023-02-22T06:33:36;9.13;;;2.03;;
20181;SDS011;10250;50.756;6.172;2023-02-22T06:35:37;7.93;;;2.50;;
20181;SDS011;10250;50.756;6.172;2023-02-22T06:37:38;9.80;;;2.40;;
20181;SDS011;10250;50.756;6.172;2023-02-22T06:39:39;7.97;;;2.30;;
20181;SDS011;10250;50.756;6.172;2023-02-22T06:41:40;9.43;;;2.10;;
20181;SDS011;10250;50.756;6.172;2023-02-22T06:43:42;6.10;;;2.10;;
20181;SDS011;10250;50.756;6.172;2023-02-22T06:45:43;9.23;;;2.13;;
20181;SDS011;10250;50.756;6.172;2023-02-22T06:47:44;9.67;;;2.27;;
20181;SDS011;10250;50.756;6.172;2023-02-22T06:49:50;9.27;;;2.23;;
20181;SDS011;10250;50.756;6.172;2023-02-22T06:51:52;9.37;;;2.57;;
20181;SDS011;10250;50.756;6.172;2023-02-22T06:53:53;9.70;;;2.53;;
20181;SDS011;10250;50.756;6.172;2023-02-22T06:55:54;9.33;;;2.13;;
20181;SDS011;10250;50.756;6.172;2023-02-22T06:57:55;9.00;;;2.47;;
20181;SDS011;10250;50.756;6.172;2023-02-22T06:59:56;13.60;;;3.23;;
20181;SDS011;10250;50.756;6.172;2023-02-22T07:01:57;17.60;;;3.60;;
20181;SDS011;10250;50.756;6.172;2023-02-22T07:03:58;14.87;;;3.60;;
20181;SDS011;10250;50.756;6.172;2023-02-22T07:05:59;12.00;;;3.17;;
20181;SDS011;10250;50.756;6.172;2023-02-22T07:08:05;14.43;;;3.40;;
20181;SDS011;10250;50.756;6.172;2023-02-22T07:10:06;14.47;;;4.33;;
20181;SDS011;10250;50.756;6.172;2023-02-22T07:12:07;14.60;;;3.63;;
20181;SDS011;10250;50.756;6.172;2023-02-22T07:14:09;17.83;;;4.30;;
20181;SDS011;10250;50.756;6.172;2023-02-22T07:16:10;13.57;;;3.40;;
20181;SDS011;10250;50.756;6.172;2023-02-22T07:18:11;14.60;;;3.20;;
20181;SDS011;10250;50.756;6.172;2023-02-22T07:20:13;13.70;;;3.23;;
20181;SDS011;10250;50.756;6.172;2023-02-22T07:22:14;13.70;;;3.40;;
20181;SDS011;10250;50.756;6.172;2023-02-22T07:24:16;14.80;;;2.67;;
20181;SDS011;10250;50.756;6.172;2023-02-22T07:26:17;10.87;;;2.60;;
20181;SDS011;10250;50.756;6.172;2023-02-22T07:28:18;11.80;;;2.60;;
20181;SDS011;10250;50.756;6.172;2023-02-22T07:30:20;10.90;;;2.37;;
20181;SDS011;10250;50.756;6.172;2023-02-22T07:32:25;8.80;;;2.60;;
20181;SDS011;10250;50.756;6.172;2023-02-22T07:34:26;8.50;;;2.10;;
20181;SDS011;10250;50.756;6.172;2023-02-22T07:36:27;9.50;;;2.60;;
20181;SDS011;10250;50.756;6.172;2023-02-22T07:38:27;13.43;;;3.10;;
20181;SDS011;10250;50.756;6.172;2023-02-22T07:40:29;11.10;;;2.87;;
20181;SDS011;10250;50.756;6.172;2023-02-22T07:42:30;10.33;;;2.63;;
20181;SDS011;10250;50.756;6.172;2023-02-22T07:44:32;8.10;;;2.00;;
20181;SDS011;10250;50.756;6.172;2023-02-22T07:46:32;10.67;;;3.00;;
20181;SDS011;10250;50.756;6.172;2023-02-22T07:48:33;13.73;;;2.63;;
20181;SDS011;10250;50.756;6.172;2023-02-22T07:50:34;11.27;;;2.50;;
20181;SDS011;10250;50.756;6.172;2023-02-22T07:52:35;9.17;;;2.37;;
20181;SDS011;10250;50.756;6.172;2023-02-22T07:54:36;13.90;;;3.07;;
20181;SDS011;10250;50.756;6.172;2023-02-22T07:56:42;10.63;;;2.83;;
20181;SDS011;10250;50.756;6.172;2023-02-22T07:58:43;7.40;;;2.00;;
20181;SDS011;10250;50.756;6.172;2023-02-22T08:00:44;11.03;;;2.30;;
20181;SDS011;10250;50.756;6.172;2023-02-22T08:02:48;9.83;;;2.60;;
20181;SDS011;10250;50.756;6.172;2023-02-22T08:04:49;7.83;;;2.33;;
20181;SDS011;10250;50.756;6.172;2023-02-22T08:06:50;9.90;;;2.10;;
20181;SDS011;10250;50.756;6.172;2023-02-22T08:08:51;11.27;;;2.50;;
20181;SDS011;10250;50.756;6.172;2023-02-22T08:10:52;10.23;;;2.40;;
20181;SDS011;10250;50.756;6.172;2023-02-22T08:12:54;12.17;;;2.83;;
20181;SDS011;10250;50.756;6.172;2023-02-22T08:14:55;9.77;;;2.57;;
20181;SDS011;10250;50.756;6.172;2023-02-22T08:16:56;8.67;;;2.30;;
20181;SDS011;10250;50.756;6.172;2023-02-22T08:18:57;10.20;;;2.37;;
20181;SDS011;10250;50.756;6.172;2023-02-22T08:20:58;8.27;;;2.10;;
20181;SDS011;10250;50.756;6.172;2023-02-22T08:22:59;13.30;;;2.70;;
20181;SDS011;10250;50.756;6.172;2023-02-22T08:25:00;7.37;;;2.07;;
20181;SDS011;10250;50.756;6.172;2023-02-22T08:27:01;9.20;;;2.23;;
20181;SDS011;10250;50.756;6.172;2023-02-22T08:29:02;8.03;;;1.73;;
20181;SDS011;10250;50.756;6.172;2023-02-22T08:31:03;5.00;;;1.50;;
20181;SDS011;10250;50.756;6.172;2023-02-22T08:33:06;10.47;;;2.17;;
20181;SDS011;10250;50.756;6.172;2023-02-22T08:35:07;13.23;;;2.40;;
20181;SDS011;10250;50.756;6.172;2023-02-22T08:37:08;8.03;;;1.83;;
20181;SDS011;10250;50.756;6.172;2023-02-22T08:39:09;9.60;;;2.30;;
20181;SDS011;10250;50.756;6.172;2023-02-22T08:41:10;6.10;;;1.70;;
20181;SDS011;10250;50.756;6.172;2023-02-22T08:43:11;8.33;;;2.03;;
20181;SDS011;10250;50.756;6.172;2023-02-22T08:45:13;10.73;;;2.13;;
20181;SDS011;10250;50.756;6.172;2023-02-22T08:47:14;8.33;;;2.17;;
20181;SDS011;10250;50.756;6.172;2023-02-22T08:49:15;5.47;;;1.63;;
20181;SDS011;10250;50.756;6.172;2023-02-22T08:51:16;10.47;;;2.30;;
20181;SDS011;10250;50.756;6.172;2023-02-22T08:53:17;8.50;;;2.40;;
20181;SDS011;10250;50.756;6.172;2023-02-22T08:55:21;8.43;;;2.03;;
20181;SDS011;10250;50.756;6.172;2023-02-22T08:57:22;7.87;;;2.00;;
20181;SDS011;10250;50.756;6.172;2023-02-22T08:59:23;10.43;;;2.33;;
20181;SDS011;10250;50.756;6.172;2023-02-22T09:01:24;8.37;;;2.00;;
20181;SDS011;10250;50.756;6.172;2023-02-22T09:03:26;7.30;;;1.60;;
20181;SDS011;10250;50.756;6.172;2023-02-22T09:05:28;6.20;;;1.63;;
20181;SDS011;10250;50.756;6.172;2023-02-22T09:07:29;5.80;;;1.67;;
20181;SDS011;10250;50.756;6.172;2023-02-22T09:09:30;11.27;;;2.50;;
20181;SDS011;10250;50.756;6.172;2023-02-22T09:11:31;7.90;;;2.10;;
20181;SDS011;10250;50.756;6.172;2023-02-22T09:13:32;8.97;;;2.10;;
20181;SDS011;10250;50.756;6.172;2023-02-22T09:15:33;8.23;;;2.10;;
20181;SDS011;10250;50.756;6.172;2023-02-22T09:17:38;7.87;;;2.50;;
20181;SDS011;10250;50.756;6.172;2023-02-22T09:19:39;10.13;;;1.97;;
20181;SDS011;10250;50.756;6.172;2023-02-22T09:21:40;7.00;;;1.70;;
20181;SDS011;10250;50.756;6.172;2023-02-22T09:23:41;8.47;;;2.07;;
20181;SDS011;10250;50.756;6.172;2023-02-22T09:25:42;6.57;;;1.90;;
20181;SDS011;10250;50.756;6.172;2023-02-22T09:27:45;9.57;;;2.37;;
20181;SDS011;10250;50.756;6.172;2023-02-22T09:29:47;10.37;;;2.13;;
20181;SDS011;10250;50.756;6.172;2023-02-22T09:31:49;10.83;;;2.37;;
20181;SDS011;10250;50.756;6.172;2023-02-22T09:33:51;6.53;;;1.80;;
20181;SDS011;10250;50.756;6.172;2023-02-22T09:35:52;10.90;;;2.67;;
20181;SDS011;10250;50.756;6.172;2023-02-22T09:37:57;10.70;;;2.30;;
20181;SDS011;10250;50.756;6.172;2023-02-22T09:39:58;10.87;;;2.57;;
20181;SDS011;10250;50.756;6.172;2023-02-22T09:42:05;9.33;;;2.40;;
20181;SDS011;10250;50.756;6.172;2023-02-22T09:46:25;7.53;;;1.97;;
20181;SDS011;10250;50.756;6.172;2023-02-22T09:48:28;7.50;;;2.07;;
20181;SDS011;10250;50.756;6.172;2023-02-22T09:50:32;11.80;;;2.63;;
20181;SDS011;10250;50.756;6.172;2023-02-22T09:52:35;13.13;;;2.83;;
20181;SDS011;10250;50.756;6.172;2023-02-22T09:56:43;11.50;;;2.10;;
20181;SDS011;10250;50.756;6.172;2023-02-22T09:58:49;8.97;;;1.80;;
20181;SDS011;10250;50.756;6.172;2023-02-22T10:00:57;8.00;;;2.10;;
20181;SDS011;10250;50.756;6.172;2023-02-22T10:03:07;11.87;;;2.23;;
20181;SDS011;10250;50.756;6.172;2023-02-22T10:05:20;8.33;;;2.33;;
20181;SDS011;10250;50.756;6.172;2023-02-22T10:07:28;9.83;;;2.37;;
20181;SDS011;10250;50.756;6.172;2023-02-22T10:09:31;10.00;;;2.40;;
20181;SDS011;10250;50.756;6.172;2023-02-22T10:11:36;9.80;;;2.60;;
20181;SDS011;10250;50.756;6.172;2023-02-22T10:13:59;7.03;;;2.00;;
20181;SDS011;10250;50.756;6.172;2023-02-22T10:24:39;12.97;;;2.20;;
20181;SDS011;10250;50.756;6.172;2023-02-22T10:26:44;8.87;;;2.17;;
20181;SDS011;10250;50.756;6.172;2023-02-22T10:28:52;10.43;;;2.73;;
20181;SDS011;10250;50.756;6.172;2023-02-22T10:30:57;8.40;;;2.30;;
20181;SDS011;10250;50.756;6.172;2023-02-22T10:35:05;13.87;;;2.67;;
20181;SDS011;10250;50.756;6.172;2023-02-22T10:41:27;13.23;;;2.90;;
20181;SDS011;10250;50.756;6.172;2023-02-22T10:43:28;10.77;;;2.60;;
20181;SDS011;10250;50.756;6.172;2023-02-22T10:45:30;11.87;;;3.07;;
20181;SDS011;10250;50.756;6.172;2023-02-22T10:47:31;11.07;;;2.80;;
20181;SDS011;10250;50.756;6.172;2023-02-22T10:49:34;8.53;;;2.70;;
20181;SDS011;10250;50.756;6.172;2023-02-22T10:51:38;10.57;;;2.60;;
20181;SDS011;10250;50.756;6.172;2023-02-22T10:53:38;10.87;;;2.83;;
20181;SDS011;10250;50.756;6.172;2023-02-22T10:58:04;14.77;;;2.90;;
20181;SDS011;10250;50.756;6.172;2023-02-22T11:00:23;12.07;;;2.77;;
20181;SDS011;10250;50.756;6.172;2023-02-22T11:02:32;10.97;;;2.90;;
20181;SDS011;10250;50.756;6.172;2023-02-22T11:04:44;9.43;;;2.70;;
20181;SDS011;10250;50.756;6.172;2023-02-22T11:06:47;14.00;;;2.90;;
20181;SDS011;10250;50.756;6.172;2023-02-22T11:08:48;11.07;;;2.90;;
20181;SDS011;10250;50.756;6.172;2023-02-22T11:10:51;11.67;;;3.17;;
20181;SDS011;10250;50.756;6.172;2023-02-22T11:12:53;14.03;;;3.40;;
20181;SDS011;10250;50.756;6.172;2023-02-22T11:14:54;12.57;;;2.97;;
20181;SDS011;10250;50.756;6.172;2023-02-22T11:16:56;10.87;;;3.37;;
20181;SDS011;10250;50.756;6.172;2023-02-22T11:21:20;11.27;;;2.90;;
20181;SDS011;10250;50.756;6.172;2023-02-22T11:23:22;12.27;;;3.40;;
20181;SDS011;10250;50.756;6.172;2023-02-22T11:25:27;15.00;;;3.60;;
20181;SDS011;10250;50.756;6.172;2023-02-22T11:27:34;12.57;;;3.00;;
20181;SDS011;10250;50.756;6.172;2023-02-22T11:29:37;10.97;;;3.10;;
20181;SDS011;10250;50.756;6.172;2023-02-22T11:31:41;11.93;;;3.40;;
20181;SDS011;10250;50.756;6.172;2023-02-22T11:33:53;11.27;;;3.07;;
20181;SDS011;10250;50.756;6.172;2023-02-22T11:35:55;11.07;;;3.07;;
20181;SDS011;10250;50.756;6.172;2023-02-22T11:38:10;11.73;;;3.40;;
20181;SDS011;10250;50.756;6.172;2023-02-22T11:42:20;10.73;;;2.77;;
20181;SDS011;10250;50.756;6.172;2023-02-22T11:44:23;12.00;;;2.90;;
20181;SDS011;10250;50.756;6.172;2023-02-22T11:46:29;10.83;;;3.23;;
20181;SDS011;10250;50.756;6.172;2023-02-22T11:48:32;13.70;;;3.60;;
20181;SDS011;10250;50.756;6.172;2023-02-22T11:52:45;11.77;;;3.27;;
20181;SDS011;10250;50.756;6.172;2023-02-22T11:56:52;10.90;;;2.70;;
20181;SDS011;10250;50.756;6.172;2023-02-22T12:05:30;12.20;;;3.30;;
20181;SDS011;10250;50.756;6.172;2023-02-22T12:14:16;16.93;;;4.47;;
20181;SDS011;10250;50.756;6.172;2023-02-22T12:16:33;11.93;;;3.17;;
20181;SDS011;10250;50.756;6.172;2023-02-22T12:20:52;14.23;;;3.57;;
20181;SDS011;10250;50.756;6.172;2023-02-22T12:23:00;11.83;;;3.27;;
20181;SDS011;10250;50.756;6.172;2023-02-22T12:27:24;15.83;;;4.37;;
20181;SDS011;10250;50.756;6.172;2023-02-22T12:29:40;14.70;;;4.03;;
20181;SDS011;10250;50.756;6.172;2023-02-22T12:31:43;12.37;;;3.43;;
20181;SDS011;10250;50.756;6.172;2023-02-22T12:34:20;13.57;;;3.77;;
20181;SDS011;10250;50.756;6.172;2023-02-22T12:36:13;15.33;;;3.83;;
20181;SDS011;10250;50.756;6.172;2023-02-22T12:38:23;13.47;;;4.07;;
20181;SDS011;10250;50.756;6.172;2023-02-22T12:42:46;12.63;;;3.43;;
20181;SDS011;10250;50.756;6.172;2023-02-22T12:44:53;14.07;;;3.70;;
20181;SDS011;10250;50.756;6.172;2023-02-22T12:46:56;14.13;;;4.47;;
20181;SDS011;10250;50.756;6.172;2023-02-22T12:51:50;12.93;;;3.73;;
20181;SDS011;10250;50.756;6.172;2023-02-22T12:54:17;13.00;;;3.53;;
20181;SDS011;10250;50.756;6.172;2023-02-22T12:56:23;13.17;;;3.63;;
20181;SDS011;10250;50.756;6.172;2023-02-22T13:00:41;15.83;;;3.70;;
20181;SDS011;10250;50.756;6.172;2023-02-22T13:05:00;14.80;;;4.17;;
20181;SDS011;10250;50.756;6.172;2023-02-22T13:15:52;12.37;;;3.47;;
20181;SDS011;10250;50.756;6.172;2023-02-22T13:20:26;14.43;;;3.70;;
20181;SDS011;10250;50.756;6.172;2023-02-22T13:25:31;11.53;;;3.33;;
20181;SDS011;10250;50.756;6.172;2023-02-22T13:28:14;12.77;;;3.73;;
20181;SDS011;10250;50.756;6.172;2023-02-22T13:29:55;13.80;;;3.97;;
20181;SDS011;10250;50.756;6.172;2023-02-22T13:46:50;11.73;;;3.57;;
20181;SDS011;10250;50.756;6.172;2023-02-22T13:53:15;14.20;;;3.73;;
20181;SDS011;10250;50.756;6.172;2023-02-22T13:55:18;11.27;;;3.03;;
20181;SDS011;10250;50.756;6.172;2023-02-22T13:57:23;14.40;;;3.37;;
20181;SDS011;10250;50.756;6.172;2023-02-22T13:59:32;14.37;;;3.90;;
20181;SDS011;10250;50.756;6.172;2023-02-22T14:03:41;12.17;;;3.43;;
20181;SDS011;10250;50.756;6.172;2023-02-22T14:07:46;13.00;;;3.97;;
20181;SDS011;10250;50.756;6.172;2023-02-22T14:09:51;13.23;;;3.50;;
20181;SDS011;10250;50.756;6.172;2023-02-22T14:11:52;12.57;;;3.90;;
20181;SDS011;10250;50.756;6.172;2023-02-22T14:14:08;14.10;;;4.20;;